createdAt,value
2018-06-30T00:00:52.307Z,81.68
2018-06-30T00:01:52.329Z,81.49
2018-06-30T00:02:52.352Z,82.07
2018-06-30T00:03:52.371Z,81.78
2018-06-30T00:05:07.056Z,81.97
2018-06-30T00:05:52.160Z,81.88
2018-06-30T00:06:52.440Z,81.97
2018-06-30T00:07:52.463Z,81.49
2018-06-30T00:08:52.485Z,81.49
2018-06-30T00:09:52.510Z,81.3
2018-06-30T00:10:52.532Z,81.59
2018-06-30T00:11:52.553Z,81.49
2018-06-30T00:12:52.575Z,81.3
2018-06-30T00:13:52.598Z,81.68
2018-06-30T00:14:52.619Z,81.26
2018-06-30T00:15:52.646Z,81.02
2018-06-30T00:16:52.666Z,81.59
2018-06-30T00:17:52.691Z,81.49
2018-06-30T00:18:52.454Z,81.16
2018-06-30T00:19:52.735Z,81.02
2018-06-30T00:21:07.418Z,81.02
2018-06-30T00:21:52.781Z,81.55
2018-06-30T00:22:52.799Z,81.26
2018-06-30T00:23:52.828Z,81.07
2018-06-30T00:24:52.852Z,81.16
2018-06-30T00:25:52.871Z,81.26
2018-06-30T00:26:52.637Z,80.98
2018-06-30T00:27:52.659Z,81.26
2018-06-30T00:29:52.961Z,81.07
2018-06-30T00:30:52.986Z,81.36
2018-06-30T00:32:53.032Z,81.16
2018-06-30T00:33:53.052Z,81.84
2018-06-30T00:34:53.074Z,81.36
2018-06-30T00:35:53.095Z,80.88
2018-06-30T00:37:07.781Z,80.79
2018-06-30T00:37:53.141Z,81.16
2018-06-30T00:38:52.907Z,80.98
2018-06-30T00:39:53.184Z,81.07
2018-06-30T00:40:53.210Z,80.79
2018-06-30T00:41:53.233Z,80.98
2018-06-30T00:42:53.253Z,81.07
2018-06-30T00:43:53.275Z,80.98
2018-06-30T00:44:53.042Z,81.45
2018-06-30T00:45:53.325Z,81.65
2018-06-30T00:46:53.343Z,81.65
2018-06-30T00:47:53.370Z,81.16
2018-06-30T00:48:53.392Z,81.55
2018-06-30T00:49:53.415Z,81.36
2018-06-30T00:50:53.437Z,81.36
2018-06-30T00:52:08.120Z,81.84
2018-06-30T00:52:53.224Z,81.45
2018-06-30T00:53:53.504Z,81.45
2018-06-30T00:54:53.269Z,81.45
2018-06-30T00:57:53.592Z,81.45
2018-06-30T00:58:53.619Z,81.36
2018-06-30T00:59:53.637Z,81.65
2018-06-30T01:00:53.661Z,81.93
2018-06-30T01:02:53.709Z,82.22
2018-06-30T01:03:53.755Z,81.6
2018-06-30T01:04:53.749Z,82.75
2018-06-30T01:05:53.772Z,82.28
2018-06-30T01:06:53.796Z,82.28
2018-06-30T01:07:53.561Z,82.94
2018-06-30T01:08:53.846Z,82.94
2018-06-30T01:09:53.863Z,83.04
2018-06-30T01:10:53.890Z,82.84
2018-06-30T01:11:53.906Z,82.94
2018-06-30T01:12:53.929Z,83.33
2018-06-30T01:13:53.951Z,83.99
2018-06-30T01:14:53.975Z,83.8
2018-06-30T01:15:53.995Z,83.61
2018-06-30T01:18:53.805Z,83.61
2018-06-30T01:19:54.089Z,83.61
2018-06-30T01:20:53.850Z,83.9
2018-06-30T01:21:54.131Z,83.9
2018-06-30T01:22:54.152Z,83.9
2018-06-30T01:24:08.841Z,84.38
2018-06-30T01:24:54.196Z,84.19
2018-06-30T01:25:54.218Z,84.38
2018-06-30T01:26:54.240Z,84.09
2018-06-30T01:27:54.265Z,84.47
2018-06-30T01:28:54.290Z,84.19
2018-06-30T01:30:54.331Z,84.85
2018-06-30T01:31:54.360Z,84.72
2018-06-30T01:32:54.374Z,84.95
2018-06-30T01:34:54.417Z,85
2018-06-30T01:35:54.183Z,85.29
2018-06-30T01:36:54.462Z,85.58
2018-06-30T01:37:54.483Z,85.38
2018-06-30T01:38:54.507Z,85.67
2018-06-30T01:40:09.190Z,85.48
2018-06-30T01:40:54.550Z,85.48
2018-06-30T01:41:54.313Z,85.48
2018-06-30T01:42:54.593Z,85.67
2018-06-30T01:43:54.619Z,86.24
2018-06-30T01:44:54.639Z,85.96
2018-06-30T01:46:54.684Z,86.15
2018-06-30T01:47:54.708Z,86.53
2018-06-30T01:48:54.732Z,86.34
2018-06-30T01:50:54.772Z,86.24
2018-06-30T01:51:54.795Z,86.24
2018-06-30T01:52:54.816Z,86.63
2018-06-30T01:53:54.838Z,86.72
2018-06-30T01:54:54.865Z,87.1
2018-06-30T01:56:09.544Z,87.1
2018-06-30T01:56:54.902Z,86.87
2018-06-30T01:57:54.932Z,87.35
2018-06-30T01:58:54.949Z,86.87
2018-06-30T01:59:54.974Z,87.35
2018-06-30T02:00:54.993Z,87.82
2018-06-30T02:02:55.038Z,87.73
2018-06-30T02:04:54.822Z,87.73
2018-06-30T02:05:55.107Z,88.2
2018-06-30T02:06:54.868Z,88.3
2018-06-30T02:07:55.150Z,88.68
2018-06-30T02:08:55.169Z,88.59
2018-06-30T02:09:55.192Z,88.59
2018-06-30T02:10:55.214Z,88.3
2018-06-30T02:12:09.896Z,88.68
2018-06-30T02:12:55.258Z,88.59
2018-06-30T02:13:55.278Z,88.97
2018-06-30T02:14:55.301Z,88.87
2018-06-30T02:15:55.329Z,89.06
2018-06-30T02:16:55.346Z,88.97
2018-06-30T02:17:55.365Z,89.16
2018-06-30T02:18:55.391Z,88.4
2018-06-30T02:23:55.497Z,88.87
2018-06-30T02:24:55.520Z,89.06
2018-06-30T02:25:55.542Z,88.92
2018-06-30T02:27:10.225Z,89.78
2018-06-30T02:27:55.586Z,89.02
2018-06-30T02:28:55.608Z,89.12
2018-06-30T02:29:55.627Z,89.69
2018-06-30T02:30:55.651Z,89.59
2018-06-30T02:31:55.682Z,89.21
2018-06-30T02:32:55.437Z,88.92
2018-06-30T02:34:55.482Z,88.92
2018-06-30T02:36:55.783Z,88.92
2018-06-30T02:37:55.806Z,89.02
2018-06-30T02:38:55.608Z,89.69
2018-06-30T02:39:55.847Z,89.21
2018-06-30T02:40:55.924Z,89.12
2018-06-30T02:41:55.634Z,89.02
2018-06-30T02:42:55.663Z,89.59
2018-06-30T02:43:55.933Z,88.73
2018-06-30T02:44:55.959Z,89.02
2018-06-30T02:45:56.100Z,88.92
2018-06-30T02:46:56.004Z,89.12
2018-06-30T02:47:56.022Z,89.21
2018-06-30T02:48:56.045Z,88.92
2018-06-30T02:50:56.089Z,88.64
2018-06-30T02:51:56.109Z,88.16
2018-06-30T02:54:56.171Z,88.16
2018-06-30T02:55:56.199Z,88.45
2018-06-30T02:56:56.220Z,88.16
2018-06-30T02:57:56.244Z,87.78
2018-06-30T02:59:10.920Z,87.78
2018-06-30T02:59:56.025Z,87.87
2018-06-30T03:00:56.301Z,87.68
2018-06-30T03:02:56.345Z,87.21
2018-06-30T03:03:56.367Z,87.02
2018-06-30T03:04:56.388Z,86.73
2018-06-30T03:05:56.408Z,87.11
2018-06-30T03:06:56.434Z,86.63
2018-06-30T03:07:56.455Z,86.73
2018-06-30T03:08:56.475Z,86.73
2018-06-30T03:09:56.495Z,86.63
2018-06-30T03:10:56.634Z,86.16
2018-06-30T03:11:56.538Z,86.73
2018-06-30T03:12:56.303Z,86.54
2018-06-30T03:13:56.324Z,85.97
2018-06-30T03:15:11.270Z,86.82
2018-06-30T03:15:56.654Z,86.16
2018-06-30T03:16:56.389Z,86.35
2018-06-30T03:17:56.670Z,86.25
2018-06-30T03:18:56.694Z,86.54
2018-06-30T03:19:56.711Z,86.44
2018-06-30T03:20:56.734Z,86.82
2018-06-30T03:21:56.757Z,86.92
2018-06-30T03:22:56.777Z,86.73
2018-06-30T03:23:56.898Z,86.44
2018-06-30T03:24:56.817Z,86.25
2018-06-30T03:25:56.840Z,86.73
2018-06-30T03:26:56.866Z,86.25
2018-06-30T03:27:56.624Z,87.11
2018-06-30T03:28:56.905Z,86.25
2018-06-30T03:29:56.930Z,86.35
2018-06-30T03:31:11.609Z,87.21
2018-06-30T03:31:56.970Z,85.97
2018-06-30T03:32:56.990Z,86.16
2018-06-30T03:33:57.011Z,86.25
2018-06-30T03:34:57.036Z,85.97
2018-06-30T03:35:57.056Z,86.06
2018-06-30T03:36:57.076Z,86.35
2018-06-30T03:37:57.096Z,86.92
2018-06-30T03:39:56.882Z,86.54
2018-06-30T03:40:56.905Z,86.06
2018-06-30T03:41:57.185Z,86.06
2018-06-30T03:42:57.206Z,86.16
2018-06-30T03:43:57.228Z,86.06
2018-06-30T03:44:56.992Z,85.58
2018-06-30T03:45:57.277Z,85.68
2018-06-30T03:47:11.954Z,86.35
2018-06-30T03:47:57.313Z,85.68
2018-06-30T03:48:57.340Z,86.16
2018-06-30T03:49:57.357Z,86.63
2018-06-30T03:50:57.381Z,86.35
2018-06-30T03:51:57.402Z,86.73
2018-06-30T03:52:57.423Z,86.16
2018-06-30T03:53:57.443Z,86.01
2018-06-30T03:54:57.207Z,85.97
2018-06-30T03:55:57.493Z,85.97
2018-06-30T03:56:57.251Z,86.25
2018-06-30T03:57:57.530Z,86.01
2018-06-30T03:58:57.551Z,86.3
2018-06-30T03:59:57.573Z,85.63
2018-06-30T04:00:57.596Z,85.53
2018-06-30T04:02:12.280Z,85.63
2018-06-30T04:02:57.640Z,85.34
2018-06-30T04:03:57.659Z,85.15
2018-06-30T04:04:57.682Z,84.39
2018-06-30T04:05:57.706Z,84.1
2018-06-30T04:06:57.728Z,84.1
2018-06-30T04:07:57.774Z,84.1
2018-06-30T04:08:57.769Z,83.62
2018-06-30T04:09:57.794Z,84.2
2018-06-30T04:10:57.818Z,84
2018-06-30T04:11:57.831Z,83.62
2018-06-30T04:12:57.857Z,83.81
2018-06-30T04:13:57.881Z,83.76
2018-06-30T04:14:57.900Z,81.41
2018-06-30T04:15:57.922Z,79.35
2018-06-30T04:16:57.952Z,75.6
2018-06-30T04:17:57.711Z,71.98
2018-06-30T04:18:57.990Z,67.54
2018-06-30T04:19:58.014Z,64.92
2018-06-30T04:20:58.044Z,62.74
2018-06-30T04:21:58.122Z,59.85
2018-06-30T04:22:57.829Z,57.95
2018-06-30T04:23:57.855Z,56.57
2018-06-30T04:24:58.144Z,53.7
2018-06-30T04:25:58.165Z,53.92
2018-06-30T04:26:58.191Z,52.35
2018-06-30T04:27:58.217Z,51.82
2018-06-30T04:28:58.242Z,50.67
2018-06-30T04:29:58.266Z,49.65
2018-06-30T04:30:58.292Z,48.69
2018-06-30T04:31:58.325Z,48.59
2018-06-30T04:32:58.348Z,48.69
2018-06-30T04:34:13.038Z,49.7
2018-06-30T04:34:58.148Z,48.83
2018-06-30T04:35:58.432Z,49.05
2018-06-30T04:36:58.461Z,48.57
2018-06-30T04:37:58.489Z,48.47
2018-06-30T04:38:58.522Z,46.66
2018-06-30T04:39:58.546Z,46.42
2018-06-30T04:40:58.573Z,45.74
2018-06-30T04:41:58.606Z,45.83
2018-06-30T04:42:58.375Z,44.79
2018-06-30T04:43:58.662Z,44.21
2018-06-30T04:45:58.719Z,43.17
2018-06-30T04:46:58.748Z,42.71
2018-06-30T04:47:58.818Z,41
2018-06-30T04:48:58.831Z,41.31
2018-06-30T04:50:13.505Z,39.69
2018-06-30T04:50:58.920Z,39.59
2018-06-30T04:51:58.909Z,39.29
2018-06-30T04:52:58.676Z,40.05
2018-06-30T04:53:58.964Z,39.69
2018-06-30T04:54:58.737Z,40.44
2018-06-30T04:55:59.028Z,39.57
2018-06-30T04:56:59.060Z,40.05
2018-06-30T04:57:59.099Z,40.81
2018-06-30T04:58:59.121Z,39.98
2018-06-30T04:59:59.152Z,41.56
2018-06-30T05:00:59.185Z,42.22
2018-06-30T05:01:59.222Z,42.61
2018-06-30T05:02:59.250Z,41.74
2018-06-30T05:03:59.282Z,40.59
2018-06-30T05:04:59.317Z,39.59
2018-06-30T05:06:14.012Z,37.98
2018-06-30T05:06:59.386Z,38.54
2018-06-30T05:07:59.411Z,38.44
2018-06-30T05:08:59.450Z,38.48
2018-06-30T05:09:59.222Z,38.07
2018-06-30T05:10:59.513Z,36.26
2018-06-30T05:11:59.545Z,36.38
2018-06-30T05:12:59.323Z,35.63
2018-06-30T05:13:59.611Z,34.97
2018-06-30T05:14:59.660Z,34.68
2018-06-30T05:15:59.683Z,35.42
2018-06-30T05:18:59.781Z,35.21
2018-06-30T05:19:59.814Z,34.86
2018-06-30T05:20:59.845Z,35.23
2018-06-30T05:22:14.546Z,33.69
2018-06-30T05:22:59.918Z,33.62
2018-06-30T05:23:59.951Z,33.14
2018-06-30T05:24:59.984Z,32.76
2018-06-30T05:26:00.239Z,32.19
2018-06-30T05:27:00.054Z,32.09
2018-06-30T05:28:00.088Z,32.48
2018-06-30T05:28:59.866Z,32.43
2018-06-30T05:30:00.000Z,34
2018-06-30T05:31:00.191Z,34.17
2018-06-30T05:32:00.227Z,34.92
2018-06-30T05:33:00.259Z,33.86
2018-06-30T05:34:00.301Z,34.78
2018-06-30T05:35:00.332Z,36.16
2018-06-30T05:36:00.108Z,37.35
2018-06-30T05:37:15.065Z,36.22
2018-06-30T05:38:00.435Z,36.07
2018-06-30T05:39:00.470Z,36.26
2018-06-30T05:40:00.505Z,36.52
2018-06-30T05:41:00.541Z,36.32
2018-06-30T05:42:00.576Z,36.83
2018-06-30T05:43:00.620Z,36.34
2018-06-30T05:44:00.388Z,35.7
2018-06-30T05:45:00.681Z,34.08
2018-06-30T05:47:00.750Z,32.29
2018-06-30T05:48:00.793Z,32.19
2018-06-30T05:49:00.827Z,32.55
2018-06-30T05:50:00.853Z,32.84
2018-06-30T05:51:00.891Z,32.75
2018-06-30T05:52:00.932Z,32.94
2018-06-30T05:53:00.964Z,32.76
2018-06-30T05:54:00.997Z,32.09
2018-06-30T05:55:01.038Z,31.72
2018-06-30T05:56:01.071Z,32.08
2018-06-30T05:57:00.850Z,33.86
2018-06-30T05:58:01.142Z,34.5
2018-06-30T05:59:01.177Z,34.82
2018-06-30T06:00:01.214Z,34.14
2018-06-30T06:01:01.247Z,33.58
2018-06-30T06:02:01.282Z,32.63
2018-06-30T06:03:01.323Z,31.96
2018-06-30T06:04:01.360Z,30.62
2018-06-30T06:05:01.390Z,30.45
2018-06-30T06:06:01.453Z,30.18
2018-06-30T06:07:01.464Z,30.08
2018-06-30T06:08:01.498Z,30.63
2018-06-30T06:09:16.198Z,31.66
2018-06-30T06:10:01.384Z,31.19
2018-06-30T06:11:01.606Z,30.81
2018-06-30T06:12:01.643Z,29.77
2018-06-30T06:13:01.676Z,30.65
2018-06-30T06:15:01.827Z,30.63
2018-06-30T06:16:01.785Z,30.32
2018-06-30T06:17:01.822Z,29.85
2018-06-30T06:18:01.860Z,29
2018-06-30T06:19:01.902Z,28.34
2018-06-30T06:20:01.679Z,28.45
2018-06-30T06:21:01.969Z,28.55
2018-06-30T06:22:02.008Z,28.52
2018-06-30T06:23:02.140Z,28.72
2018-06-30T06:24:02.075Z,28.43
2018-06-30T06:25:16.795Z,28.92
2018-06-30T06:26:02.338Z,29.1
2018-06-30T06:27:02.200Z,28.61
2018-06-30T06:28:02.224Z,30.05
2018-06-30T06:29:02.257Z,30.58
2018-06-30T06:30:02.047Z,30.19
2018-06-30T06:32:02.376Z,29.57
2018-06-30T06:33:02.155Z,29.47
2018-06-30T06:34:02.444Z,28.53
2018-06-30T06:35:02.480Z,29.08
2018-06-30T06:36:02.516Z,30.02
2018-06-30T06:37:02.554Z,29.06
2018-06-30T06:38:02.586Z,29.06
2018-06-30T06:39:02.624Z,29.71
2018-06-30T06:40:02.665Z,29.66
2018-06-30T06:41:17.360Z,29
2018-06-30T06:42:02.735Z,28.85
2018-06-30T06:43:02.511Z,29.71
2018-06-30T06:44:02.908Z,29.78
2018-06-30T06:45:02.845Z,30.04
2018-06-30T06:46:02.619Z,30.14
2018-06-30T06:47:02.916Z,29.11
2018-06-30T06:48:02.952Z,29.03
2018-06-30T06:49:02.988Z,29.68
2018-06-30T06:50:03.026Z,28.51
2018-06-30T06:51:03.130Z,28.7
2018-06-30T06:53:02.874Z,27.58
2018-06-30T06:54:03.170Z,26.52
2018-06-30T06:55:03.209Z,26.52
2018-06-30T06:56:02.983Z,26.23
2018-06-30T06:57:17.942Z,25.54
2018-06-30T06:58:03.316Z,25.39
2018-06-30T06:59:03.354Z,24.42
2018-06-30T07:00:03.133Z,24.22
2018-06-30T07:01:03.425Z,25.26
2018-06-30T07:02:03.205Z,25.26
2018-06-30T07:03:03.613Z,25.74
2018-06-30T07:04:03.542Z,26.59
2018-06-30T07:05:03.314Z,27.36
2018-06-30T07:06:03.610Z,27.73
2018-06-30T07:07:03.384Z,27.92
2018-06-30T07:08:03.677Z,27.16
2018-06-30T07:09:03.458Z,27.08
2018-06-30T07:10:03.753Z,26.79
2018-06-30T07:11:03.788Z,26.41
2018-06-30T07:12:18.492Z,26.32
2018-06-30T07:13:03.866Z,26.43
2018-06-30T07:14:03.898Z,26.04
2018-06-30T07:15:03.932Z,25.16
2018-06-30T07:16:03.972Z,24.69
2018-06-30T07:17:03.750Z,24.88
2018-06-30T07:18:03.785Z,26.19
2018-06-30T07:20:03.858Z,25.62
2018-06-30T07:21:03.892Z,25.71
2018-06-30T07:23:03.965Z,26.28
2018-06-30T07:24:04.004Z,26.09
2018-06-30T07:25:04.038Z,26.01
2018-06-30T07:26:04.337Z,25.23
2018-06-30T07:27:04.138Z,24.66
2018-06-30T07:28:04.148Z,24.67
2018-06-30T07:29:04.442Z,25.04
2018-06-30T07:30:04.680Z,25.7
2018-06-30T07:31:04.594Z,25.23
2018-06-30T07:32:04.291Z,24.84
2018-06-30T07:33:04.327Z,24.96
2018-06-30T07:34:04.625Z,24.57
2018-06-30T07:35:04.399Z,24.38
2018-06-30T07:36:04.699Z,24.95
2018-06-30T07:37:04.729Z,24.87
2018-06-30T07:38:04.769Z,24.85
2018-06-30T07:39:04.543Z,24.07
2018-06-30T07:40:04.838Z,24.84
2018-06-30T07:41:04.872Z,25.7
2018-06-30T07:42:04.907Z,26.07
2018-06-30T07:43:04.943Z,25.4
2018-06-30T07:44:19.644Z,25.12
2018-06-30T07:45:04.757Z,23.69
2018-06-30T07:47:05.088Z,23.39
2018-06-30T07:48:04.864Z,23.78
2018-06-30T07:49:04.901Z,24.93
2018-06-30T07:50:05.230Z,25.3
2018-06-30T07:51:04.975Z,24.26
2018-06-30T07:52:05.267Z,23.89
2018-06-30T07:55:05.114Z,23.99
2018-06-30T07:56:05.486Z,24.21
2018-06-30T07:57:05.448Z,23.79
2018-06-30T07:58:05.476Z,25.24
2018-06-30T07:59:05.516Z,24.83
2018-06-30T08:00:20.215Z,24.17
2018-06-30T08:01:05.586Z,24.18
2018-06-30T08:02:05.788Z,23.9
2018-06-30T08:03:05.399Z,23.91
2018-06-30T08:04:05.436Z,23.82
2018-06-30T08:06:05.764Z,27.89
2018-06-30T08:07:05.805Z,28.36
2018-06-30T08:08:05.834Z,28.25
2018-06-30T08:09:05.612Z,28.28
2018-06-30T08:10:05.909Z,28.47
2018-06-30T08:11:05.942Z,28.29
2018-06-30T08:12:05.719Z,27.25
2018-06-30T08:13:06.012Z,27.06
2018-06-30T08:14:06.048Z,26.3
2018-06-30T08:15:06.086Z,26.02
2018-06-30T08:16:20.781Z,26.72
2018-06-30T08:17:06.151Z,26.2
2018-06-30T08:18:06.188Z,25.15
2018-06-30T08:19:06.224Z,25.75
2018-06-30T08:20:06.260Z,25.85
2018-06-30T08:21:06.050Z,26.03
2018-06-30T08:22:06.326Z,25.75
2018-06-30T08:23:06.110Z,25
2018-06-30T08:25:06.432Z,25.84
2018-06-30T08:26:06.466Z,25.93
2018-06-30T08:27:06.502Z,26.53
2018-06-30T08:28:06.538Z,27.3
2018-06-30T08:29:06.571Z,28.61
2018-06-30T08:30:06.605Z,29.76
2018-06-30T08:31:06.639Z,30.41
2018-06-30T08:32:21.336Z,30.79
2018-06-30T08:33:06.717Z,31.05
2018-06-30T08:34:06.485Z,30.19
2018-06-30T08:35:06.778Z,29.94
2018-06-30T08:36:06.809Z,30.04
2018-06-30T08:37:06.844Z,29.74
2018-06-30T08:38:06.874Z,29.66
2018-06-30T08:39:06.916Z,29.96
2018-06-30T08:42:06.758Z,32.02
2018-06-30T08:43:07.047Z,33.15
2018-06-30T08:44:06.821Z,33.8
2018-06-30T08:45:07.115Z,33.42
2018-06-30T08:46:07.150Z,32.94
2018-06-30T08:47:21.845Z,32.18
2018-06-30T08:48:07.216Z,31.53
2018-06-30T08:49:07.246Z,30.04
2018-06-30T08:50:07.280Z,28.53
2018-06-30T08:51:07.360Z,27.66
2018-06-30T08:52:07.346Z,28.25
2018-06-30T08:53:07.377Z,29.78
2018-06-30T08:54:07.254Z,30.51
2018-06-30T08:55:07.456Z,32.31
2018-06-30T08:56:07.219Z,31.79
2018-06-30T08:57:07.584Z,31.63
2018-06-30T08:58:07.286Z,30.12
2018-06-30T08:59:07.319Z,28.25
2018-06-30T09:00:07.351Z,27.2
2018-06-30T09:01:07.648Z,26.84
2018-06-30T09:02:07.678Z,27.68
2018-06-30T09:03:07.712Z,28.23
2018-06-30T09:04:07.741Z,28.9
2018-06-30T09:05:07.776Z,30.43
2018-06-30T09:06:07.816Z,31.55
2018-06-30T09:07:07.940Z,32.12
2018-06-30T09:08:07.615Z,33.26
2018-06-30T09:09:07.648Z,34.01
2018-06-30T09:10:07.938Z,34.47
2018-06-30T09:11:07.981Z,33.54
2018-06-30T09:12:08.068Z,31.07
2018-06-30T09:14:07.806Z,29.68
2018-06-30T09:15:07.838Z,29.1
2018-06-30T09:16:08.203Z,30.05
2018-06-30T09:17:08.160Z,31
2018-06-30T09:18:08.192Z,30.11
2018-06-30T09:19:22.887Z,31.47
2018-06-30T09:20:08.268Z,31.24
2018-06-30T09:21:08.030Z,31.35
2018-06-30T09:22:08.326Z,30.4
2018-06-30T09:23:08.348Z,30.41
2018-06-30T09:24:08.502Z,30.68
2018-06-30T09:25:08.421Z,31.23
2018-06-30T09:26:08.446Z,29.88
2018-06-30T09:27:08.495Z,29.54
2018-06-30T09:28:08.248Z,31.1
2018-06-30T09:30:08.573Z,32.57
2018-06-30T09:31:08.601Z,31.99
2018-06-30T09:32:08.630Z,31.63
2018-06-30T09:33:08.663Z,30.97
2018-06-30T09:34:08.694Z,30.5
2018-06-30T09:35:23.389Z,29.64
2018-06-30T09:36:08.756Z,29.55
2018-06-30T09:37:08.800Z,28.88
2018-06-30T09:38:08.561Z,28.63
2018-06-30T09:39:08.849Z,28.54
2018-06-30T09:40:08.624Z,27.58
2018-06-30T09:41:08.911Z,28.07
2018-06-30T09:42:08.944Z,28.15
2018-06-30T09:43:08.974Z,29
2018-06-30T09:44:08.753Z,29.47
2018-06-30T09:45:09.040Z,29.75
2018-06-30T09:46:09.069Z,30.71
2018-06-30T09:47:09.107Z,31.65
2018-06-30T09:48:08.873Z,31.55
2018-06-30T09:49:09.170Z,30.69
2018-06-30T09:50:08.936Z,30.4
2018-06-30T09:51:23.886Z,30.48
2018-06-30T09:52:09.255Z,30.85
2018-06-30T09:53:09.027Z,31.05
2018-06-30T09:54:09.321Z,30.57
2018-06-30T09:55:09.348Z,30.85
2018-06-30T09:56:09.118Z,31.62
2018-06-30T09:57:09.452Z,31.81
2018-06-30T09:58:09.439Z,31.73
2018-06-30T09:59:09.469Z,32.78
2018-06-30T10:00:09.509Z,32.76
2018-06-30T10:01:09.544Z,30.58
2018-06-30T10:03:09.591Z,29.08
2018-06-30T10:04:09.623Z,28.51
2018-06-30T10:05:09.652Z,28.34
2018-06-30T10:06:09.425Z,27.11
2018-06-30T10:07:24.375Z,26.53
2018-06-30T10:08:09.486Z,27.5
2018-06-30T10:09:09.837Z,28.34
2018-06-30T10:10:09.547Z,29.19
2018-06-30T10:11:09.835Z,28.99
2018-06-30T10:12:09.868Z,28.97
2018-06-30T10:13:09.931Z,29.44
2018-06-30T10:14:09.929Z,29.61
2018-06-30T10:16:09.988Z,31.12
2018-06-30T10:17:10.019Z,30.74
2018-06-30T10:18:10.051Z,30
2018-06-30T10:19:10.187Z,29.06
2018-06-30T10:20:10.111Z,27.8
2018-06-30T10:21:10.247Z,28.49
2018-06-30T10:22:24.835Z,29.83
2018-06-30T10:23:10.202Z,30.74
2018-06-30T10:24:10.232Z,31.78
2018-06-30T10:25:10.261Z,33.02
2018-06-30T10:27:10.326Z,32.73
2018-06-30T10:28:10.351Z,31.79
2018-06-30T10:29:10.124Z,30.48
2018-06-30T10:30:10.413Z,29.54
2018-06-30T10:31:10.491Z,29.83
2018-06-30T10:33:10.504Z,30.68
2018-06-30T10:34:10.530Z,30.68
2018-06-30T10:35:10.557Z,30.69
2018-06-30T10:36:10.595Z,30.32
2018-06-30T10:37:10.621Z,30.59
2018-06-30T10:38:10.650Z,31.53
2018-06-30T10:39:10.677Z,31.89
2018-06-30T10:40:10.708Z,32.28
2018-06-30T10:41:10.738Z,32.96
2018-06-30T10:42:10.831Z,33.12
2018-06-30T10:43:10.539Z,33.04
2018-06-30T10:44:10.829Z,33.42
2018-06-30T10:45:10.600Z,34.57
2018-06-30T10:46:10.986Z,33.91
2018-06-30T10:47:10.918Z,33.42
2018-06-30T10:48:10.687Z,33.8
2018-06-30T10:50:11.006Z,33.12
2018-06-30T10:51:11.036Z,33.62
2018-06-30T10:52:11.064Z,34.09
2018-06-30T10:53:11.092Z,34.09
2018-06-30T10:54:25.785Z,34.47
2018-06-30T10:55:11.155Z,35.31
2018-06-30T10:56:11.181Z,35.6
2018-06-30T10:57:11.209Z,35.04
2018-06-30T10:58:11.237Z,35.8
2018-06-30T10:59:11.267Z,35.12
2018-06-30T11:00:11.401Z,35.02
2018-06-30T11:02:11.355Z,34.84
2018-06-30T11:03:11.127Z,33.89
2018-06-30T11:04:11.557Z,33.99
2018-06-30T11:05:11.512Z,33.99
2018-06-30T11:06:11.473Z,33.62
2018-06-30T11:07:11.503Z,33.99
2018-06-30T11:08:11.271Z,33.99
2018-06-30T11:09:11.559Z,35.04
2018-06-30T11:10:26.249Z,36.36
2018-06-30T11:11:11.614Z,36.53
2018-06-30T11:12:11.643Z,36.32
2018-06-30T11:13:11.773Z,37.1
2018-06-30T11:14:11.700Z,38.16
2018-06-30T11:15:11.730Z,37.85
2018-06-30T11:16:11.754Z,37.96
2018-06-30T11:17:11.789Z,38.45
2018-06-30T11:18:11.817Z,38.16
2018-06-30T11:19:11.844Z,37.48
2018-06-30T11:20:12.128Z,37.58
2018-06-30T11:21:11.899Z,37.29
2018-06-30T11:22:11.668Z,37.29
2018-06-30T11:23:11.955Z,37.46
2018-06-30T11:24:12.029Z,37.85
2018-06-30T11:25:11.752Z,37.58
2018-06-30T11:26:26.698Z,37.12
2018-06-30T11:27:12.063Z,37.12
2018-06-30T11:28:12.093Z,36.46
2018-06-30T11:29:12.120Z,37.23
2018-06-30T11:30:12.151Z,36.94
2018-06-30T11:31:12.178Z,35.97
2018-06-30T11:32:12.201Z,35.68
2018-06-30T11:33:12.237Z,35.5
2018-06-30T11:34:12.259Z,34.84
2018-06-30T11:35:12.289Z,34.47
2018-06-30T11:37:12.345Z,34.84
2018-06-30T11:38:12.369Z,35.05
2018-06-30T11:39:12.402Z,34.77
2018-06-30T11:40:12.428Z,35.33
2018-06-30T11:41:12.455Z,36.34
2018-06-30T11:42:27.143Z,36.72
2018-06-30T11:43:12.509Z,37.12
2018-06-30T11:44:12.536Z,36.63
2018-06-30T11:45:12.564Z,36.44
2018-06-30T11:46:12.592Z,36.82
2018-06-30T11:47:12.620Z,37.02
2018-06-30T11:48:12.388Z,36.9
2018-06-30T11:49:12.415Z,36.9
2018-06-30T11:50:12.705Z,37
2018-06-30T11:51:12.729Z,37
2018-06-30T11:52:12.759Z,36.9
2018-06-30T11:53:12.785Z,36.72
2018-06-30T11:54:12.813Z,36.8
2018-06-30T11:55:12.848Z,36.74
2018-06-30T11:56:12.867Z,36.18
2018-06-30T11:57:27.558Z,35.88
2018-06-30T11:58:12.927Z,35.41
2018-06-30T11:59:12.949Z,35.5
2018-06-30T12:00:12.978Z,35.23
2018-06-30T12:01:13.008Z,34.92
2018-06-30T12:02:13.109Z,35.21
2018-06-30T12:03:13.062Z,35.42
2018-06-30T12:05:12.858Z,34.77
2018-06-30T12:06:12.885Z,34.36
2018-06-30T12:07:13.171Z,34.54
2018-06-30T12:08:13.200Z,35.12
2018-06-30T12:09:12.977Z,35.78
2018-06-30T12:10:13.252Z,36.16
2018-06-30T12:11:13.281Z,35.95
2018-06-30T12:12:13.314Z,36.16
2018-06-30T12:13:13.081Z,36.36
2018-06-30T12:14:13.106Z,36.92
2018-06-30T12:15:13.389Z,37.87
2018-06-30T12:16:13.160Z,38.08
2018-06-30T12:17:13.443Z,37.87
2018-06-30T12:18:13.470Z,37.87
2018-06-30T12:19:13.499Z,37.96
2018-06-30T12:20:13.526Z,38.16
2018-06-30T12:21:13.296Z,38.35
2018-06-30T12:22:13.326Z,38.71
2018-06-30T12:23:13.609Z,38.71
2018-06-30T12:24:13.639Z,38.81
2018-06-30T12:25:13.665Z,38.33
2018-06-30T12:26:13.693Z,37.96
2018-06-30T12:27:13.718Z,37.88
2018-06-30T12:28:13.747Z,37.6
2018-06-30T12:29:28.437Z,37.12
2018-06-30T12:30:13.838Z,37.12
2018-06-30T12:31:13.568Z,37.79
2018-06-30T12:32:13.647Z,37.98
2018-06-30T12:33:13.623Z,38.08
2018-06-30T12:34:13.907Z,38
2018-06-30T12:35:13.934Z,37.81
2018-06-30T12:36:13.961Z,38.39
2018-06-30T12:37:13.991Z,38.95
2018-06-30T12:38:14.019Z,38.74
2018-06-30T12:39:13.882Z,39.51
2018-06-30T12:40:14.070Z,38.95
2018-06-30T12:41:14.097Z,38.58
2018-06-30T12:42:14.126Z,38.02
2018-06-30T12:43:14.199Z,38.78
2018-06-30T12:44:14.183Z,39.04
2018-06-30T12:45:28.868Z,38.46
2018-06-30T12:46:13.981Z,38.48
2018-06-30T12:47:14.264Z,37.82
2018-06-30T12:48:14.288Z,38.41
2018-06-30T12:49:14.316Z,38.12
2018-06-30T12:50:14.345Z,38.1
2018-06-30T12:51:14.368Z,39.34
2018-06-30T12:53:14.422Z,39.8
2018-06-30T12:54:14.687Z,40.09
2018-06-30T12:55:14.480Z,40.26
2018-06-30T12:57:14.532Z,41.02
2018-06-30T12:58:14.558Z,41.78
2018-06-30T12:59:14.584Z,41.98
2018-06-30T13:00:14.712Z,41.48
2018-06-30T13:01:29.300Z,41.57
2018-06-30T13:02:14.406Z,41.19
2018-06-30T13:03:14.697Z,41.98
2018-06-30T13:04:14.819Z,41.5
2018-06-30T13:05:14.749Z,41.02
2018-06-30T13:06:14.774Z,41.02
2018-06-30T13:07:14.541Z,40.53
2018-06-30T13:08:14.822Z,40.9
2018-06-30T13:09:14.953Z,40.61
2018-06-30T13:10:14.877Z,40.7
2018-06-30T13:11:14.905Z,40.49
2018-06-30T13:12:14.929Z,40.9
2018-06-30T13:13:14.956Z,40.42
2018-06-30T13:14:14.982Z,40.22
2018-06-30T13:15:15.010Z,40.9
2018-06-30T13:16:15.037Z,40.49
2018-06-30T13:17:29.732Z,40.12
2018-06-30T13:18:15.090Z,40.15
2018-06-30T13:19:15.118Z,40.15
2018-06-30T13:20:15.144Z,39.76
2018-06-30T13:21:15.168Z,40.15
2018-06-30T13:22:15.193Z,40.17
2018-06-30T13:23:15.356Z,39.97
2018-06-30T13:24:15.252Z,38.91
2018-06-30T13:25:15.016Z,39.39
2018-06-30T13:26:15.307Z,39.22
2018-06-30T13:27:15.326Z,37.7
2018-06-30T13:28:15.349Z,38.28
2018-06-30T13:29:15.384Z,36.94
2018-06-30T13:30:15.405Z,36.96
2018-06-30T13:31:15.432Z,36.47
2018-06-30T13:32:30.121Z,35.64
2018-06-30T13:33:15.483Z,35.35
2018-06-30T13:34:15.513Z,35.62
2018-06-30T13:35:15.541Z,36
2018-06-30T13:36:15.568Z,36.38
2018-06-30T13:37:15.593Z,37.29
2018-06-30T13:38:15.618Z,37.87
2018-06-30T13:39:15.646Z,37.77
2018-06-30T13:40:15.417Z,39.2
2018-06-30T13:42:15.827Z,39.86
2018-06-30T13:43:15.539Z,39.76
2018-06-30T13:44:15.780Z,40.15
2018-06-30T13:45:15.549Z,40.42
2018-06-30T13:46:15.872Z,40.99
2018-06-30T13:47:15.860Z,40.15
2018-06-30T13:48:15.885Z,40.34
2018-06-30T13:49:15.653Z,40.53
2018-06-30T13:50:15.942Z,40.05